sensor_id;sensor_type;location;lat;lon;timestamp;pressure;altitude;pressure_sealevel;temperature;humidity
67840;BME280;54636;51.684;5.142;2023-05-25T00:01:23;102611.56;;;10.33;100.00
67840;BME280;54636;51.684;5.142;2023-05-25T00:03:50;102598.72;;;10.21;100.00
67840;BME280;54636;51.684;5.142;2023-05-25T00:06:17;102601.78;;;10.23;100.00
67840;BME280;54636;51.684;5.142;2023-05-25T00:08:44;102608.81;;;10.20;100.00
67840;BME280;54636;51.684;5.142;2023-05-25T00:11:10;102601.28;;;10.12;100.00
67840;BME280;54636;51.684;5.142;2023-05-25T00:13:37;102605.09;;;10.14;100.00
67840;BME280;54636;51.684;5.142;2023-05-25T00:16:03;102598.03;;;10.04;100.00
67840;BME280;54636;51.684;5.142;2023-05-25T00:18:28;102607.25;;;10.07;100.00
67840;BME280;54636;51.684;5.142;2023-05-25T00:20:54;102608.03;;;10.07;100.00
67840;BME280;54636;51.684;5.142;2023-05-25T00:23:19;102600.94;;;9.97;100.00
67840;BME280;54636;51.684;5.142;2023-05-25T00:25:45;102606.28;;;10.01;100.00
67840;BME280;54636;51.684;5.142;2023-05-25T00:28:11;102601.06;;;9.94;100.00
67840;BME280;54636;51.684;5.142;2023-05-25T00:30:36;102615.81;;;9.93;100.00
67840;BME280;54636;51.684;5.142;2023-05-25T00:33:02;102611.78;;;9.84;100.00
67840;BME280;54636;51.684;5.142;2023-05-25T00:35:27;102618.41;;;9.83;100.00
67840;BME280;54636;51.684;5.142;2023-05-25T00:37:53;102618.06;;;9.81;100.00
67840;BME280;54636;51.684;5.142;2023-05-25T00:40:18;102618.94;;;9.78;100.00
67840;BME280;54636;51.684;5.142;2023-05-25T00:42:44;102611.00;;;9.71;100.00
67840;BME280;54636;51.684;5.142;2023-05-25T00:45:10;102592.50;;;9.53;100.00
67840;BME280;54636;51.684;5.142;2023-05-25T00:47:36;102584.66;;;9.43;100.00
67840;BME280;54636;51.684;5.142;2023-05-25T00:50:02;102612.06;;;9.61;100.00
67840;BME280;54636;51.684;5.142;2023-05-25T00:52:29;102604.78;;;9.58;100.00
67840;BME280;54636;51.684;5.142;2023-05-25T00:54:59;102609.13;;;9.55;100.00
67840;BME280;54636;51.684;5.142;2023-05-25T00:57:26;102600.84;;;9.46;100.00
67840;BME280;54636;51.684;5.142;2023-05-25T00:59:53;102613.88;;;9.51;100.00
67840;BME280;54636;51.684;5.142;2023-05-25T01:02:20;102617.78;;;9.50;100.00
67840;BME280;54636;51.684;5.142;2023-05-25T01:04:52;102613.31;;;9.44;100.00
67840;BME280;54636;51.684;5.142;2023-05-25T01:07:20;102615.00;;;9.38;100.00
67840;BME280;54636;51.684;5.142;2023-05-25T01:09:47;102620.00;;;9.39;100.00
67840;BME280;54636;51.684;5.142;2023-05-25T01:12:14;102617.81;;;9.34;100.00
67840;BME280;54636;51.684;5.142;2023-05-25T01:14:41;102626.72;;;9.35;100.00
67840;BME280;54636;51.684;5.142;2023-05-25T01:17:07;102609.28;;;9.19;100.00
67840;BME280;54636;51.684;5.142;2023-05-25T01:19:34;102624.28;;;9.24;100.00
67840;BME280;54636;51.684;5.142;2023-05-25T01:24:33;102635.13;;;9.24;100.00
67840;BME280;54636;51.684;5.142;2023-05-25T01:30:09;102634.28;;;9.27;100.00
67840;BME280;54636;51.684;5.142;2023-05-25T01:32:36;102632.41;;;9.24;100.00
67840;BME280;54636;51.684;5.142;2023-05-25T01:35:03;102633.25;;;9.21;100.00
67840;BME280;54636;51.684;5.142;2023-05-25T01:37:29;102630.38;;;9.12;100.00
67840;BME280;54636;51.684;5.142;2023-05-25T01:39:55;102633.44;;;9.14;100.00
67840;BME280;54636;51.684;5.142;2023-05-25T01:42:21;102627.56;;;9.03;100.00
67840;BME280;54636;51.684;5.142;2023-05-25T01:44:47;102650.88;;;9.13;100.00
67840;BME280;54636;51.684;5.142;2023-05-25T01:47:21;102653.03;;;9.05;100.00
67840;BME280;54636;51.684;5.142;2023-05-25T01:52:26;102649.41;;;8.96;100.00
67840;BME280;54636;51.684;5.142;2023-05-25T01:55:04;102642.63;;;8.87;100.00
67840;BME280;54636;51.684;5.142;2023-05-25T01:57:34;102635.84;;;8.79;100.00
67840;BME280;54636;51.684;5.142;2023-05-25T02:00:01;102647.78;;;8.82;100.00
67840;BME280;54636;51.684;5.142;2023-05-25T02:02:27;102640.59;;;8.75;100.00
67840;BME280;54636;51.684;5.142;2023-05-25T02:04:53;102640.31;;;8.70;100.00
67840;BME280;54636;51.684;5.142;2023-05-25T02:07:21;102648.47;;;8.70;100.00
67840;BME280;54636;51.684;5.142;2023-05-25T02:09:46;102647.00;;;8.65;100.00
67840;BME280;54636;51.684;5.142;2023-05-25T02:12:12;102646.66;;;8.63;100.00
67840;BME280;54636;51.684;5.142;2023-05-25T02:14:37;102647.59;;;8.56;100.00
67840;BME280;54636;51.684;5.142;2023-05-25T02:17:03;102644.81;;;8.60;100.00
67840;BME280;54636;51.684;5.142;2023-05-25T02:19:29;102650.66;;;8.58;100.00
67840;BME280;54636;51.684;5.142;2023-05-25T02:21:54;102642.34;;;8.49;100.00
67840;BME280;54636;51.684;5.142;2023-05-25T02:24:21;102628.28;;;8.38;100.00
67840;BME280;54636;51.684;5.142;2023-05-25T02:26:48;102629.47;;;8.37;100.00
67840;BME280;54636;51.684;5.142;2023-05-25T02:29:14;102636.75;;;8.40;100.00
67840;BME280;54636;51.684;5.142;2023-05-25T02:31:39;102638.38;;;8.38;100.00
67840;BME280;54636;51.684;5.142;2023-05-25T02:34:05;102635.31;;;8.36;100.00
67840;BME280;54636;51.684;5.142;2023-05-25T02:36:30;102640.00;;;8.32;100.00
67840;BME280;54636;51.684;5.142;2023-05-25T02:38:55;102628.41;;;8.31;100.00
67840;BME280;54636;51.684;5.142;2023-05-25T02:41:21;102631.13;;;8.31;100.00
67840;BME280;54636;51.684;5.142;2023-05-25T02:43:48;102632.38;;;8.26;100.00
67840;BME280;54636;51.684;5.142;2023-05-25T02:46:14;102606.53;;;8.06;100.00
67840;BME280;54636;51.684;5.142;2023-05-25T02:48:40;102634.56;;;8.15;100.00
67840;BME280;54636;51.684;5.142;2023-05-25T02:51:07;102644.69;;;8.11;100.00
67840;BME280;54636;51.684;5.142;2023-05-25T02:53:32;102633.66;;;8.02;100.00
67840;BME280;54636;51.684;5.142;2023-05-25T02:55:57;102654.75;;;8.11;100.00
67840;BME280;54636;51.684;5.142;2023-05-25T02:58:24;102646.78;;;8.04;100.00
67840;BME280;54636;51.684;5.142;2023-05-25T03:00:50;102662.09;;;8.10;100.00
67840;BME280;54636;51.684;5.142;2023-05-25T03:03:15;102645.66;;;8.01;100.00
67840;BME280;54636;51.684;5.142;2023-05-25T03:05:41;102661.28;;;8.13;100.00
67840;BME280;54636;51.684;5.142;2023-05-25T03:08:06;102656.34;;;8.08;100.00
67840;BME280;54636;51.684;5.142;2023-05-25T03:10:31;102666.00;;;8.09;100.00
67840;BME280;54636;51.684;5.142;2023-05-25T03:12:57;102636.66;;;7.88;100.00
67840;BME280;54636;51.684;5.142;2023-05-25T03:15:22;102657.31;;;7.98;100.00
67840;BME280;54636;51.684;5.142;2023-05-25T03:17:48;102678.81;;;8.05;100.00
67840;BME280;54636;51.684;5.142;2023-05-25T03:20:14;102665.44;;;7.98;100.00
67840;BME280;54636;51.684;5.142;2023-05-25T03:22:41;102671.19;;;8.00;100.00
67840;BME280;54636;51.684;5.142;2023-05-25T03:25:07;102672.38;;;7.99;100.00
67840;BME280;54636;51.684;5.142;2023-05-25T03:27:33;102677.84;;;7.96;100.00
67840;BME280;54636;51.684;5.142;2023-05-25T03:30:00;102666.00;;;7.89;100.00
67840;BME280;54636;51.684;5.142;2023-05-25T03:32:25;102667.25;;;7.85;100.00
67840;BME280;54636;51.684;5.142;2023-05-25T03:34:51;102672.31;;;7.83;100.00
67840;BME280;54636;51.684;5.142;2023-05-25T03:37:16;102674.03;;;7.93;100.00
67840;BME280;54636;51.684;5.142;2023-05-25T03:39:41;102677.09;;;7.95;100.00
67840;BME280;54636;51.684;5.142;2023-05-25T03:42:07;102679.88;;;7.91;100.00
67840;BME280;54636;51.684;5.142;2023-05-25T03:44:32;102666.06;;;7.86;100.00
67840;BME280;54636;51.684;5.142;2023-05-25T03:46:57;102672.50;;;7.92;100.00
67840;BME280;54636;51.684;5.142;2023-05-25T03:49:23;102679.09;;;7.91;100.00
67840;BME280;54636;51.684;5.142;2023-05-25T03:51:48;102663.41;;;7.82;100.00
67840;BME280;54636;51.684;5.142;2023-05-25T03:54:13;102689.84;;;7.94;100.00
67840;BME280;54636;51.684;5.142;2023-05-25T03:56:39;102691.72;;;7.98;100.00
67840;BME280;54636;51.684;5.142;2023-05-25T03:59:04;102671.41;;;7.89;100.00
67840;BME280;54636;51.684;5.142;2023-05-25T04:01:30;102687.44;;;8.00;100.00
67840;BME280;54636;51.684;5.142;2023-05-25T04:03:56;102678.56;;;8.00;100.00
67840;BME280;54636;51.684;5.142;2023-05-25T04:06:21;102682.38;;;8.02;100.00
67840;BME280;54636;51.684;5.142;2023-05-25T04:08:50;102684.66;;;8.04;100.00
67840;BME280;54636;51.684;5.142;2023-05-25T04:11:15;102694.50;;;8.14;100.00
67840;BME280;54636;51.684;5.142;2023-05-25T04:13:41;102677.78;;;7.99;100.00
67840;BME280;54636;51.684;5.142;2023-05-25T04:16:06;102702.97;;;8.16;100.00
67840;BME280;54636;51.684;5.142;2023-05-25T04:18:32;102695.34;;;8.11;100.00
67840;BME280;54636;51.684;5.142;2023-05-25T04:20:57;102700.63;;;8.18;100.00
67840;BME280;54636;51.684;5.142;2023-05-25T04:23:23;102711.66;;;8.27;100.00
67840;BME280;54636;51.684;5.142;2023-05-25T04:25:48;102694.44;;;8.17;100.00
67840;BME280;54636;51.684;5.142;2023-05-25T04:28:15;102712.06;;;8.45;100.00
67840;BME280;54636;51.684;5.142;2023-05-25T04:30:41;102702.22;;;8.71;100.00
67840;BME280;54636;51.684;5.142;2023-05-25T04:33:08;102691.66;;;8.93;100.00
67840;BME280;54636;51.684;5.142;2023-05-25T04:35:36;102712.59;;;9.70;100.00
67840;BME280;54636;51.684;5.142;2023-05-25T04:38:01;102709.63;;;10.22;100.00
67840;BME280;54636;51.684;5.142;2023-05-25T04:40:27;102716.72;;;10.33;100.00
67840;BME280;54636;51.684;5.142;2023-05-25T04:42:52;102716.53;;;10.11;100.00
67840;BME280;54636;51.684;5.142;2023-05-25T04:45:19;102714.28;;;9.93;100.00
67840;BME280;54636;51.684;5.142;2023-05-25T04:47:45;102707.59;;;9.69;100.00
67840;BME280;54636;51.684;5.142;2023-05-25T04:50:12;102720.16;;;9.63;100.00
67840;BME280;54636;51.684;5.142;2023-05-25T04:52:37;102722.28;;;9.55;100.00
67840;BME280;54636;51.684;5.142;2023-05-25T04:55:03;102717.81;;;9.48;100.00
67840;BME280;54636;51.684;5.142;2023-05-25T04:57:29;102719.16;;;9.56;100.00
67840;BME280;54636;51.684;5.142;2023-05-25T04:59:56;102724.25;;;9.54;100.00
67840;BME280;54636;51.684;5.142;2023-05-25T05:02:21;102726.28;;;9.50;100.00
67840;BME280;54636;51.684;5.142;2023-05-25T05:04:47;102722.22;;;9.42;100.00
67840;BME280;54636;51.684;5.142;2023-05-25T05:07:12;102723.66;;;9.47;100.00
67840;BME280;54636;51.684;5.142;2023-05-25T05:09:38;102721.88;;;9.40;100.00
67840;BME280;54636;51.684;5.142;2023-05-25T05:12:03;102735.19;;;9.51;100.00
67840;BME280;54636;51.684;5.142;2023-05-25T05:14:29;102746.72;;;9.55;100.00
67840;BME280;54636;51.684;5.142;2023-05-25T05:16:54;102737.81;;;9.54;100.00
67840;BME280;54636;51.684;5.142;2023-05-25T05:19:19;102730.44;;;9.55;100.00
67840;BME280;54636;51.684;5.142;2023-05-25T05:21:45;102739.16;;;9.63;100.00
67840;BME280;54636;51.684;5.142;2023-05-25T05:24:10;102748.38;;;9.65;100.00
67840;BME280;54636;51.684;5.142;2023-05-25T05:26:38;102757.19;;;9.69;100.00
67840;BME280;54636;51.684;5.142;2023-05-25T05:29:03;102764.06;;;9.74;100.00
67840;BME280;54636;51.684;5.142;2023-05-25T05:31:29;102767.09;;;9.76;100.00
67840;BME280;54636;51.684;5.142;2023-05-25T05:33:56;102763.94;;;9.77;100.00
67840;BME280;54636;51.684;5.142;2023-05-25T05:36:21;102768.84;;;9.82;100.00
67840;BME280;54636;51.684;5.142;2023-05-25T05:38:46;102762.25;;;9.83;100.00
67840;BME280;54636;51.684;5.142;2023-05-25T05:41:12;102742.66;;;9.76;100.00
67840;BME280;54636;51.684;5.142;2023-05-25T05:43:39;102774.34;;;9.95;100.00
67840;BME280;54636;51.684;5.142;2023-05-25T05:46:06;102775.25;;;10.05;100.00
67840;BME280;54636;51.684;5.142;2023-05-25T05:48:31;102780.16;;;10.10;100.00
67840;BME280;54636;51.684;5.142;2023-05-25T05:50:57;102770.41;;;10.12;100.00
67840;BME280;54636;51.684;5.142;2023-05-25T05:53:22;102774.88;;;10.19;100.00
67840;BME280;54636;51.684;5.142;2023-05-25T05:55:48;102770.16;;;10.23;100.00
67840;BME280;54636;51.684;5.142;2023-05-25T05:58:17;102779.63;;;10.31;100.00
67840;BME280;54636;51.684;5.142;2023-05-25T06:00:43;102766.47;;;10.30;100.00
67840;BME280;54636;51.684;5.142;2023-05-25T06:03:08;102783.03;;;10.61;100.00
67840;BME280;54636;51.684;5.142;2023-05-25T06:05:33;102786.69;;;10.96;100.00
67840;BME280;54636;51.684;5.142;2023-05-25T06:07:59;102790.47;;;10.98;100.00
67840;BME280;54636;51.684;5.142;2023-05-25T06:10:25;102786.13;;;10.88;100.00
67840;BME280;54636;51.684;5.142;2023-05-25T06:12:51;102793.09;;;10.89;100.00
67840;BME280;54636;51.684;5.142;2023-05-25T06:15:16;102794.03;;;11.08;100.00
67840;BME280;54636;51.684;5.142;2023-05-25T06:17:42;102792.97;;;11.18;100.00
67840;BME280;54636;51.684;5.142;2023-05-25T06:20:08;102793.38;;;11.16;100.00
67840;BME280;54636;51.684;5.142;2023-05-25T06:22:34;102802.31;;;11.17;100.00
67840;BME280;54636;51.684;5.142;2023-05-25T06:24:59;102795.34;;;11.16;100.00
67840;BME280;54636;51.684;5.142;2023-05-25T06:27:25;102801.56;;;11.16;100.00
67840;BME280;54636;51.684;5.142;2023-05-25T06:29:50;102805.56;;;11.25;100.00
67840;BME280;54636;51.684;5.142;2023-05-25T06:32:16;102812.75;;;11.31;100.00
67840;BME280;54636;51.684;5.142;2023-05-25T06:34:41;102808.84;;;11.32;100.00
67840;BME280;54636;51.684;5.142;2023-05-25T06:37:07;102804.16;;;11.33;100.00
67840;BME280;54636;51.684;5.142;2023-05-25T06:39:32;102803.41;;;11.32;100.00
67840;BME280;54636;51.684;5.142;2023-05-25T06:41:57;102805.47;;;11.41;100.00
67840;BME280;54636;51.684;5.142;2023-05-25T06:44:23;102797.63;;;11.43;100.00
67840;BME280;54636;51.684;5.142;2023-05-25T06:46:48;102810.53;;;11.64;100.00
67840;BME280;54636;51.684;5.142;2023-05-25T06:49:13;102838.22;;;12.32;100.00
67840;BME280;54636;51.684;5.142;2023-05-25T06:51:39;102831.66;;;13.44;97.81
67840;BME280;54636;51.684;5.142;2023-05-25T06:54:04;102834.63;;;14.13;92.02
67840;BME280;54636;51.684;5.142;2023-05-25T06:56:32;102831.69;;;14.35;88.32
67840;BME280;54636;51.684;5.142;2023-05-25T06:58:57;102838.66;;;15.06;85.65
67840;BME280;54636;51.684;5.142;2023-05-25T07:01:23;102836.22;;;15.89;81.36
67840;BME280;54636;51.684;5.142;2023-05-25T07:03:48;102839.13;;;16.38;76.95
67840;BME280;54636;51.684;5.142;2023-05-25T07:06:14;102844.25;;;16.45;75.28
67840;BME280;54636;51.684;5.142;2023-05-25T07:08:41;102845.16;;;15.98;76.66
67840;BME280;54636;51.684;5.142;2023-05-25T07:11:06;102814.03;;;15.87;76.93
67840;BME280;54636;51.684;5.142;2023-05-25T07:13:35;102839.50;;;15.78;77.28
67840;BME280;54636;51.684;5.142;2023-05-25T07:16:00;102835.84;;;15.24;80.43
67840;BME280;54636;51.684;5.142;2023-05-25T07:18:25;102836.81;;;15.12;83.87
67840;BME280;54636;51.684;5.142;2023-05-25T07:20:51;102825.16;;;15.35;80.96
67840;BME280;54636;51.684;5.142;2023-05-25T07:23:17;102849.41;;;15.52;76.59
67840;BME280;54636;51.684;5.142;2023-05-25T07:25:43;102842.72;;;15.53;76.47
67840;BME280;54636;51.684;5.142;2023-05-25T07:28:08;102840.25;;;15.55;75.51
67840;BME280;54636;51.684;5.142;2023-05-25T07:30:33;102845.06;;;15.36;76.52
67840;BME280;54636;51.684;5.142;2023-05-25T07:32:59;102840.28;;;15.22;77.79
67840;BME280;54636;51.684;5.142;2023-05-25T07:35:25;102837.25;;;15.20;78.76
67840;BME280;54636;51.684;5.142;2023-05-25T07:38:02;102845.44;;;15.53;78.45
67840;BME280;54636;51.684;5.142;2023-05-25T07:40:29;102851.84;;;15.59;75.66
67840;BME280;54636;51.684;5.142;2023-05-25T07:42:55;102853.59;;;15.38;76.20
67840;BME280;54636;51.684;5.142;2023-05-25T07:45:20;102835.44;;;15.16;77.00
67840;BME280;54636;51.684;5.142;2023-05-25T07:47:46;102836.69;;;15.06;76.63
67840;BME280;54636;51.684;5.142;2023-05-25T07:50:12;102855.59;;;15.28;76.11
67840;BME280;54636;51.684;5.142;2023-05-25T07:52:38;102845.91;;;15.18;74.03
67840;BME280;54636;51.684;5.142;2023-05-25T07:55:07;102856.78;;;15.03;78.17
67840;BME280;54636;51.684;5.142;2023-05-25T07:57:32;102862.78;;;15.26;77.41
67840;BME280;54636;51.684;5.142;2023-05-25T07:59:58;102856.97;;;15.33;76.03
67840;BME280;54636;51.684;5.142;2023-05-25T08:02:24;102850.38;;;15.06;77.07
67840;BME280;54636;51.684;5.142;2023-05-25T08:04:49;102866.47;;;15.13;77.49
67840;BME280;54636;51.684;5.142;2023-05-25T08:07:14;102867.06;;;15.18;76.90
67840;BME280;54636;51.684;5.142;2023-05-25T08:09:40;102861.53;;;15.27;78.10
67840;BME280;54636;51.684;5.142;2023-05-25T08:12:05;102864.13;;;15.30;76.53
67840;BME280;54636;51.684;5.142;2023-05-25T08:14:31;102866.06;;;15.39;75.72
67840;BME280;54636;51.684;5.142;2023-05-25T08:16:56;102867.78;;;15.84;75.14
67840;BME280;54636;51.684;5.142;2023-05-25T08:19:21;102868.81;;;16.10;71.96
67840;BME280;54636;51.684;5.142;2023-05-25T08:21:47;102860.50;;;16.20;70.73
67840;BME280;54636;51.684;5.142;2023-05-25T08:24:12;102866.56;;;16.24;70.49
67840;BME280;54636;51.684;5.142;2023-05-25T08:26:37;102880.34;;;16.29;71.19
67840;BME280;54636;51.684;5.142;2023-05-25T08:29:04;102879.69;;;16.34;68.67
67840;BME280;54636;51.684;5.142;2023-05-25T08:31:31;102875.81;;;16.26;70.47
67840;BME280;54636;51.684;5.142;2023-05-25T08:33:57;102876.59;;;16.41;69.12
67840;BME280;54636;51.684;5.142;2023-05-25T08:36:23;102875.91;;;16.32;68.23
67840;BME280;54636;51.684;5.142;2023-05-25T08:38:49;102888.50;;;16.24;68.36
67840;BME280;54636;51.684;5.142;2023-05-25T08:41:14;102880.53;;;16.11;69.57
67840;BME280;54636;51.684;5.142;2023-05-25T08:43:40;102879.41;;;16.18;69.65
67840;BME280;54636;51.684;5.142;2023-05-25T08:46:07;102883.63;;;16.04;68.70
67840;BME280;54636;51.684;5.142;2023-05-25T08:48:34;102880.50;;;15.96;68.91
67840;BME280;54636;51.684;5.142;2023-05-25T08:51:07;102877.63;;;15.91;69.27
67840;BME280;54636;51.684;5.142;2023-05-25T08:53:37;102876.16;;;16.04;69.97
67840;BME280;54636;51.684;5.142;2023-05-25T08:56:09;102876.69;;;16.32;65.96
67840;BME280;54636;51.684;5.142;2023-05-25T08:58:39;102880.59;;;16.55;67.46
67840;BME280;54636;51.684;5.142;2023-05-25T09:01:08;102884.31;;;16.28;66.96
67840;BME280;54636;51.684;5.142;2023-05-25T09:03:36;102875.34;;;15.89;68.14
67840;BME280;54636;51.684;5.142;2023-05-25T09:06:02;102885.59;;;15.56;67.73
67840;BME280;54636;51.684;5.142;2023-05-25T09:08:28;102878.06;;;15.41;69.17
67840;BME280;54636;51.684;5.142;2023-05-25T09:10:55;102880.34;;;15.43;66.61
67840;BME280;54636;51.684;5.142;2023-05-25T09:13:21;102874.28;;;15.39;67.97
67840;BME280;54636;51.684;5.142;2023-05-25T09:15:47;102881.75;;;15.62;67.86
67840;BME280;54636;51.684;5.142;2023-05-25T09:18:12;102896.09;;;16.05;65.99
67840;BME280;54636;51.684;5.142;2023-05-25T09:20:38;102885.28;;;16.40;65.77
67840;BME280;54636;51.684;5.142;2023-05-25T09:23:04;102896.19;;;16.64;66.26
67840;BME280;54636;51.684;5.142;2023-05-25T09:25:30;102891.59;;;16.70;65.09
67840;BME280;54636;51.684;5.142;2023-05-25T09:27:56;102908.16;;;16.75;64.47
67840;BME280;54636;51.684;5.142;2023-05-25T09:30:25;102900.78;;;16.82;64.62
67840;BME280;54636;51.684;5.142;2023-05-25T09:33:11;102898.38;;;17.04;65.40
67840;BME280;54636;51.684;5.142;2023-05-25T09:35:37;102903.19;;;17.09;63.47
67840;BME280;54636;51.684;5.142;2023-05-25T09:38:02;102907.19;;;16.93;61.68
67840;BME280;54636;51.684;5.142;2023-05-25T09:40:33;102895.34;;;17.02;61.49
67840;BME280;54636;51.684;5.142;2023-05-25T09:43:01;102908.31;;;17.01;62.05
67840;BME280;54636;51.684;5.142;2023-05-25T09:45:26;102902.66;;;16.90;59.10
67840;BME280;54636;51.684;5.142;2023-05-25T09:47:56;102908.97;;;16.96;60.83
67840;BME280;54636;51.684;5.142;2023-05-25T09:50:22;102896.34;;;16.69;61.02
67840;BME280;54636;51.684;5.142;2023-05-25T09:52:48;102900.81;;;16.43;63.30
67840;BME280;54636;51.684;5.142;2023-05-25T09:55:14;102913.88;;;16.48;62.62
67840;BME280;54636;51.684;5.142;2023-05-25T09:57:40;102906.19;;;16.76;62.66
67840;BME280;54636;51.684;5.142;2023-05-25T10:00:08;102911.28;;;16.83;62.43
67840;BME280;54636;51.684;5.142;2023-05-25T10:02:35;102910.34;;;16.86;62.27
67840;BME280;54636;51.684;5.142;2023-05-25T10:05:00;102909.97;;;16.78;62.28
67840;BME280;54636;51.684;5.142;2023-05-25T10:07:26;102895.91;;;16.47;63.76
67840;BME280;54636;51.684;5.142;2023-05-25T10:09:53;102910.84;;;16.46;62.56
67840;BME280;54636;51.684;5.142;2023-05-25T10:12:21;102912.09;;;16.60;63.97
67840;BME280;54636;51.684;5.142;2023-05-25T10:14:49;102896.06;;;16.82;62.34
67840;BME280;54636;51.684;5.142;2023-05-25T10:17:19;102889.28;;;16.98;58.84
67840;BME280;54636;51.684;5.142;2023-05-25T10:19:51;102907.25;;;17.28;56.91
67840;BME280;54636;51.684;5.142;2023-05-25T10:22:22;102900.84;;;17.52;57.26
67840;BME280;54636;51.684;5.142;2023-05-25T10:25:15;102909.56;;;17.85;57.77
67840;BME280;54636;51.684;5.142;2023-05-25T10:27:56;102907.50;;;18.00;56.14
67840;BME280;54636;51.684;5.142;2023-05-25T10:30:24;102913.59;;;18.10;55.53
67840;BME280;54636;51.684;5.142;2023-05-25T10:32:51;102914.38;;;18.10;54.85
67840;BME280;54636;51.684;5.142;2023-05-25T10:35:16;102889.72;;;18.22;56.08
67840;BME280;54636;51.684;5.142;2023-05-25T10:37:42;102919.34;;;18.58;54.33
67840;BME280;54636;51.684;5.142;2023-05-25T10:40:09;102920.69;;;18.42;52.88
67840;BME280;54636;51.684;5.142;2023-05-25T10:42:36;102916.16;;;18.14;53.88
67840;BME280;54636;51.684;5.142;2023-05-25T10:45:04;102920.75;;;18.02;56.16
67840;BME280;54636;51.684;5.142;2023-05-25T10:47:30;102914.25;;;18.25;55.65
67840;BME280;54636;51.684;5.142;2023-05-25T10:49:57;102909.03;;;18.73;54.60
67840;BME280;54636;51.684;5.142;2023-05-25T10:52:27;102905.47;;;18.99;52.98
67840;BME280;54636;51.684;5.142;2023-05-25T10:54:57;102904.84;;;19.15;52.78
67840;BME280;54636;51.684;5.142;2023-05-25T10:57:24;102910.34;;;19.15;52.81
67840;BME280;54636;51.684;5.142;2023-05-25T10:59:59;102898.56;;;18.78;52.37
67840;BME280;54636;51.684;5.142;2023-05-25T11:02:28;102916.66;;;18.38;52.87
67840;BME280;54636;51.684;5.142;2023-05-25T11:08:09;102915.81;;;18.06;54.88
67840;BME280;54636;51.684;5.142;2023-05-25T11:13:33;102917.19;;;17.96;52.67
67840;BME280;54636;51.684;5.142;2023-05-25T11:16:14;102904.31;;;18.07;54.92
67840;BME280;54636;51.684;5.142;2023-05-25T11:18:55;102899.25;;;18.00;54.06
67840;BME280;54636;51.684;5.142;2023-05-25T11:26:28;102891.31;;;18.80;51.71
67840;BME280;54636;51.684;5.142;2023-05-25T11:28:55;102891.22;;;19.37;50.79
67840;BME280;54636;51.684;5.142;2023-05-25T11:33:54;102892.75;;;19.44;50.04
67840;BME280;54636;51.684;5.142;2023-05-25T11:36:22;102887.81;;;19.17;50.11
67840;BME280;54636;51.684;5.142;2023-05-25T11:38:47;102871.06;;;18.83;51.35
67840;BME280;54636;51.684;5.142;2023-05-25T11:41:17;102882.34;;;18.59;51.82
67840;BME280;54636;51.684;5.142;2023-05-25T11:43:50;102865.66;;;18.42;51.41
67840;BME280;54636;51.684;5.142;2023-05-25T11:46:18;102867.88;;;18.13;51.25
67840;BME280;54636;51.684;5.142;2023-05-25T11:48:48;102863.41;;;18.15;52.39
67840;BME280;54636;51.684;5.142;2023-05-25T11:51:16;102868.47;;;18.22;51.11
67840;BME280;54636;51.684;5.142;2023-05-25T11:53:42;102864.47;;;18.49;49.85
67840;BME280;54636;51.684;5.142;2023-05-25T11:56:08;102853.22;;;18.73;50.98
67840;BME280;54636;51.684;5.142;2023-05-25T11:58:33;102853.75;;;19.14;50.65
67840;BME280;54636;51.684;5.142;2023-05-25T12:01:21;102861.19;;;19.51;48.81
67840;BME280;54636;51.684;5.142;2023-05-25T12:03:49;102837.19;;;19.08;49.20
67840;BME280;54636;51.684;5.142;2023-05-25T12:06:33;102853.53;;;18.86;50.84
67840;BME280;54636;51.684;5.142;2023-05-25T12:09:01;102843.81;;;18.59;51.46
67840;BME280;54636;51.684;5.142;2023-05-25T12:11:28;102840.38;;;18.38;50.81
67840;BME280;54636;51.684;5.142;2023-05-25T12:13:54;102858.75;;;18.53;51.53
67840;BME280;54636;51.684;5.142;2023-05-25T12:16:20;102853.47;;;18.49;51.29
67840;BME280;54636;51.684;5.142;2023-05-25T12:18:45;102852.94;;;18.71;51.88
67840;BME280;54636;51.684;5.142;2023-05-25T12:21:11;102856.56;;;18.88;52.07
67840;BME280;54636;51.684;5.142;2023-05-25T12:23:36;102849.88;;;19.00;52.21
67840;BME280;54636;51.684;5.142;2023-05-25T12:26:09;102866.91;;;18.99;51.10
67840;BME280;54636;51.684;5.142;2023-05-25T12:28:38;102853.75;;;18.77;51.56
67840;BME280;54636;51.684;5.142;2023-05-25T12:31:23;102855.25;;;18.78;51.61
67840;BME280;54636;51.684;5.142;2023-05-25T12:34:11;102853.00;;;18.77;52.76
67840;BME280;54636;51.684;5.142;2023-05-25T12:36:47;102852.47;;;18.72;54.12
67840;BME280;54636;51.684;5.142;2023-05-25T12:39:14;102846.38;;;19.00;52.79
67840;BME280;54636;51.684;5.142;2023-05-25T12:42:00;102850.94;;;19.08;51.73
67840;BME280;54636;51.684;5.142;2023-05-25T12:44:33;102858.41;;;19.02;50.76
67840;BME280;54636;51.684;5.142;2023-05-25T12:47:16;102841.84;;;18.97;51.92
67840;BME280;54636;51.684;5.142;2023-05-25T12:49:50;102844.34;;;18.95;51.67
67840;BME280;54636;51.684;5.142;2023-05-25T12:54:57;102846.88;;;18.98;51.00
67840;BME280;54636;51.684;5.142;2023-05-25T12:57:33;102836.31;;;18.91;51.65
67840;BME280;54636;51.684;5.142;2023-05-25T13:00:01;102846.72;;;19.13;52.10
67840;BME280;54636;51.684;5.142;2023-05-25T13:02:27;102835.81;;;19.30;51.70
67840;BME280;54636;51.684;5.142;2023-05-25T13:04:53;102834.88;;;19.44;50.17
67840;BME280;54636;51.684;5.142;2023-05-25T13:07:18;102841.09;;;19.33;50.36
67840;BME280;54636;51.684;5.142;2023-05-25T13:09:46;102833.06;;;19.30;50.31
67840;BME280;54636;51.684;5.142;2023-05-25T13:12:12;102833.97;;;19.16;52.29